Bismarck, North Dakota
Current Conditions -  °F | °C
As of 2:52 PM on Thursday 23 Oct 2014 (Local Time) from KBIS Reporting Station
Clear Clear  
Wind Chill: 23°   Ceiling: Unl
Heat Index: 23°   Visibility: 10mi
Dew Point: -2°   Wind: 12mph
Humidity: 20%   Direction: 210°SSW
Pressure: 29.82"   Gusts: NA
Location:  46.81°N, 100.77°W
Report Text: KBIS 231952Z 21010KT 10SM CLR 23/M02 A2982 RMK AO2 SLP101 T02281017
Loading
Personal Weather Stations






























Interactive Weather Map New forecast layout! Learn more

10-Day Weather Forecast

Advertisements
Track Severe Weather on mobile